Prince George, Virginia
Current Conditions -  °F | °C
As of 1:55 PM on Friday 31 Oct 2014 (Local Time) from KPTB Reporting Station
Broken Clouds Broken Clouds  
Wind Chill: 59°   Ceiling: 5000
Heat Index: 59°   Visibility: 10mi
Dew Point: 34°   Wind: 0mph
Humidity: 39%   Direction: NA
Pressure: 29.87"   Gusts: NA
Location:  37.22°N, 77.29°W
Report Text: KPTB 311755Z AUTO 00000KT 10SM BKN050 15/01 A2987 RMK AO2 T01490010 10158 20061
Loading
Personal Weather Stations






























Interactive Weather Map
Tropical Storm Tracking
New forecast layout! Learn more

10-Day Weather Forecast

Advertisements
Track Severe Weather on mobile